Time;durP1;ratioP1;P1;durP2;ratioP2;P2;SDS_P1;SDS_P2;PMS_P1;PMS_P2;Temp;Humidity;BMP_temperature;BMP_pressure;BME280_temperature;BME280_humidity;BME280_pressure;Samples;Min_cycle;Max_cycle;Signal;HPM_P1;HPM_P2
2021/01/31 00:00:20;;;;;;;13.80;9.73;;;1.90;90.90;;;;;;5055734;28;20032;-67
2021/01/31 00:02:47;;;;;;;14.75;9.25;;;1.90;90.90;;;;;;5049617;28;20488;-67
2021/01/31 00:05:13;;;;;;;14.40;8.68;;;1.90;90.90;;;;;;5049393;28;20064;-67
2021/01/31 00:07:39;;;;;;;18.38;8.25;;;1.80;90.90;;;;;;5063705;28;20036;-67
2021/01/31 00:10:06;;;;;;;13.40;9.05;;;1.80;90.90;;;;;;5058115;28;20036;-67
2021/01/31 00:12:31;;;;;;;13.05;6.95;;;1.70;91.00;;;;;;5061944;28;20025;-67
2021/01/31 00:14:56;;;;;;;13.65;7.57;;;1.70;91.00;;;;;;5057890;28;20516;-67
2021/01/31 00:17:22;;;;;;;12.88;7.68;;;1.70;91.00;;;;;;5055460;28;20028;-67
2021/01/31 00:19:47;;;;;;;14.93;7.30;;;1.70;91.00;;;;;;5054478;28;20025;-67
2021/01/31 00:22:13;;;;;;;9.95;6.63;;;1.60;90.90;;;;;;5073783;28;20378;-67
2021/01/31 00:24:38;;;;;;;13.02;6.95;;;1.60;90.80;;;;;;5059343;28;20025;-67
2021/01/31 00:27:04;;;;;;;13.40;6.90;;;1.60;90.70;;;;;;5053615;28;20080;-67
2021/01/31 00:29:29;;;;;;;9.18;5.85;;;1.50;90.70;;;;;;5051076;28;20057;-67
2021/01/31 00:31:55;;;;;;;12.40;6.53;;;1.50;90.60;;;;;;5070181;28;20047;-67
2021/01/31 00:34:21;;;;;;;11.95;6.43;;;1.50;90.50;;;;;;5063714;28;20513;-67
2021/01/31 00:36:48;;;;;;;11.27;6.20;;;1.50;90.50;;;;;;5070099;28;20028;-67
2021/01/31 00:39:15;;;;;;;11.52;6.10;;;1.40;90.50;;;;;;5064630;28;20072;-66
2021/01/31 00:41:41;;;;;;;12.75;6.45;;;1.40;90.60;;;;;;5061781;28;20032;-67
2021/01/31 00:44:07;;;;;;;12.55;6.57;;;1.30;90.60;;;;;;5051767;28;20040;-67
2021/01/31 00:46:51;;;;;;;11.50;6.22;;;1.30;90.70;;;;;;5057297;28;20115;-66
2021/01/31 00:49:16;;;;;;;12.57;6.93;;;1.20;90.90;;;;;;5052864;28;20082;-66
2021/01/31 00:51:46;;;;;;;12.52;7.55;;;1.30;90.90;;;;;;5053526;28;20124;-67
2021/01/31 00:54:11;;;;;;;13.65;8.27;;;1.20;91.00;;;;;;5054405;28;20025;-66
2021/01/31 00:56:37;;;;;;;13.27;8.10;;;1.20;91.00;;;;;;5052875;28;20078;-67
2021/01/31 00:59:02;;;;;;;13.68;7.60;;;1.20;91.00;;;;;;5049737;28;20037;-67
2021/01/31 01:01:28;;;;;;;15.95;8.65;;;1.30;91.10;;;;;;5052981;28;20392;-66
2021/01/31 01:03:53;;;;;;;13.77;7.95;;;1.20;91.10;;;;;;5053292;28;20013;-66
2021/01/31 01:06:18;;;;;;;17.50;8.63;;;1.20;91.10;;;;;;5042122;28;20134;-66
2021/01/31 01:08:44;;;;;;;16.50;9.50;;;1.20;91.10;;;;;;5036870;28;20021;-66
2021/01/31 01:11:09;;;;;;;15.93;9.15;;;1.20;91.20;;;;;;5052971;28;20579;-66
2021/01/31 01:13:35;;;;;;;14.93;9.30;;;1.20;91.30;;;;;;5052434;28;20029;-66
2021/01/31 01:16:00;;;;;;;14.68;8.77;;;1.10;91.30;;;;;;5049532;28;20482;-66
2021/01/31 01:18:26;;;;;;;13.85;8.90;;;1.10;91.40;;;;;;5051817;28;20025;-66
2021/01/31 01:20:51;;;;;;;17.20;8.60;;;1.10;91.40;;;;;;5052594;28;20389;-66
2021/01/31 01:23:17;;;;;;;12.50;8.13;;;1.00;91.40;;;;;;5068113;28;20151;-66
2021/01/31 01:25:42;;;;;;;14.25;8.25;;;1.00;91.40;;;;;;5052459;28;20374;-65
2021/01/31 01:28:08;;;;;;;16.75;8.65;;;1.00;91.40;;;;;;5067123;28;20251;-65
2021/01/31 01:30:34;;;;;;;15.80;8.70;;;1.00;91.40;;;;;;5050386;28;20162;-65
2021/01/31 01:33:00;;;;;;;15.25;8.27;;;1.00;91.40;;;;;;5065222;28;20016;-65
2021/01/31 01:35:27;;;;;;;14.68;8.38;;;1.00;91.50;;;;;;5053607;28;20033;-65
2021/01/31 01:37:53;;;;;;;15.27;8.88;;;1.00;91.60;;;;;;5062288;28;20036;-65
2021/01/31 01:40:27;;;;;;;14.38;8.35;;;0.90;91.60;;;;;;5053361;28;20040;-65
2021/01/31 01:42:53;;;;;;;14.70;8.93;;;0.90;91.70;;;;;;5061655;28;20036;-66
2021/01/31 01:45:20;;;;;;;14.55;8.80;;;0.90;91.60;;;;;;5061052;28;20033;-65
2021/01/31 01:47:48;;;;;;;15.15;8.95;;;1.00;91.70;;;;;;5071722;28;20029;-65
2021/01/31 01:50:36;;;;;;;16.40;9.77;;;1.00;91.70;;;;;;5054982;28;20031;-66
2021/01/31 01:53:03;;;;;;;17.52;11.18;;;1.10;91.70;;;;;;5052129;28;20021;-66
2021/01/31 01:55:33;;;;;;;17.88;10.25;;;1.10;91.60;;;;;;5048471;28;20040;-66
2021/01/31 01:58:05;;;;;;;16.83;9.75;;;1.10;91.60;;;;;;5052017;28;20033;-66
2021/01/31 02:00:32;;;;;;;16.70;9.32;;;1.10;91.60;;;;;;5058175;28;20040;-66
2021/01/31 02:03:13;;;;;;;18.30;10.20;;;1.10;91.70;;;;;;5071819;28;20059;-67
2021/01/31 02:05:44;;;;;;;16.95;10.25;;;1.10;91.70;;;;;;5052037;28;20481;-66
2021/01/31 02:08:09;;;;;;;18.25;11.25;;;1.10;91.70;;;;;;5049894;28;20048;-67
2021/01/31 02:10:35;;;;;;;18.08;10.70;;;1.10;91.70;;;;;;5056681;28;20024;-67
2021/01/31 02:13:02;;;;;;;19.45;11.50;;;1.20;91.80;;;;;;5057367;28;20552;-67
2021/01/31 02:15:29;;;;;;;20.27;11.45;;;1.10;91.70;;;;;;5052436;28;20171;-67
2021/01/31 02:18:32;;;;;;;17.55;10.93;;;1.10;91.70;;;;;;5050835;28;20110;-67
2021/01/31 02:21:32;;;;;;;20.15;11.23;;;1.10;91.70;;;;;;5050137;28;20145;-67
2021/01/31 02:24:21;;;;;;;19.08;11.57;;;1.00;91.50;;;;;;5027352;28;20129;-67
2021/01/31 02:27:11;;;;;;;19.73;11.88;;;0.90;91.30;;;;;;5050230;28;20029;-67
2021/01/31 02:30:10;;;;;;;24.10;12.55;;;0.80;91.30;;;;;;5052490;28;20130;-67
2021/01/31 02:33:06;;;;;;;19.52;11.05;;;0.70;91.60;;;;;;5051522;28;20051;-67
2021/01/31 02:35:32;;;;;;;19.42;11.35;;;0.60;91.90;;;;;;5051237;28;20032;-67
2021/01/31 02:38:07;;;;;;;19.98;12.07;;;0.60;91.90;;;;;;5049646;28;20032;-67
2021/01/31 02:40:55;;;;;;;19.95;11.35;;;0.50;92.10;;;;;;5053762;28;20095;-67
2021/01/31 02:43:28;;;;;;;19.52;10.95;;;0.50;92.20;;;;;;5054701;28;20461;-66
2021/01/31 02:45:59;;;;;;;18.27;11.55;;;0.40;92.40;;;;;;5065295;28;20029;-67
2021/01/31 02:48:39;;;;;;;22.10;12.80;;;0.40;92.50;;;;;;5055002;28;20055;-67
2021/01/31 02:51:17;;;;;;;21.30;11.32;;;0.40;92.50;;;;;;5062320;28;20061;-67
2021/01/31 02:53:54;;;;;;;17.77;10.15;;;0.30;92.50;;;;;;5056916;28;20028;-67
2021/01/31 02:56:34;;;;;;;19.50;11.40;;;0.20;92.50;;;;;;5060760;28;20131;-67
2021/01/31 02:59:11;;;;;;;22.65;12.38;;;0.20;92.60;;;;;;5053770;28;20036;-67
2021/01/31 03:01:50;;;;;;;22.20;11.80;;;0.20;92.60;;;;;;5050407;28;20081;-67
2021/01/31 03:04:48;;;;;;;22.95;12.55;;;0.10;92.60;;;;;;5070876;28;20028;-67
2021/01/31 03:07:25;;;;;;;19.88;11.15;;;0.10;92.70;;;;;;5055254;28;20040;-67
2021/01/31 03:10:02;;;;;;;22.83;11.52;;;0.00;92.70;;;;;;5071107;28;20036;-67
2021/01/31 03:12:40;;;;;;;21.70;12.30;;;0.00;92.70;;;;;;5057395;28;20037;-67
2021/01/31 03:15:09;;;;;;;19.98;12.13;;;0.00;92.70;;;;;;5071125;28;20032;-66
2021/01/31 03:17:50;;;;;;;19.45;11.80;;;0.00;92.70;;;;;;5050646;28;20040;-67
2021/01/31 03:20:21;;;;;;;24.13;12.18;;;0.00;92.50;;;;;;5050287;28;20478;-67
2021/01/31 03:23:05;;;;;;;19.92;11.85;;;0.00;92.50;;;;;;5056402;28;20044;-66
2021/01/31 03:25:38;;;;;;;21.98;12.60;;;0.10;92.50;;;;;;5049503;28;20032;-66
2021/01/31 03:28:05;;;;;;;19.75;11.93;;;0.10;92.40;;;;;;5056894;28;20029;-66
2021/01/31 03:30:30;;;;;;;19.45;10.60;;;0.20;92.40;;;;;;5055224;28;20127;-66
2021/01/31 03:33:03;;;;;;;16.00;9.80;;;0.20;92.30;;;;;;5053475;28;20112;-66
2021/01/31 03:35:39;;;;;;;16.90;10.27;;;0.20;92.30;;;;;;5056966;28;20119;-67
2021/01/31 03:38:20;;;;;;;17.52;10.75;;;0.20;92.30;;;;;;5054608;28;20037;-67
2021/01/31 03:40:51;;;;;;;15.30;9.68;;;0.20;92.20;;;;;;5056066;28;20082;-66
2021/01/31 03:43:17;;;;;;;14.70;8.95;;;0.20;92.20;;;;;;5054760;28;20037;-66
2021/01/31 03:46:04;;;;;;;16.15;10.10;;;0.20;92.10;;;;;;5061164;28;20025;-66
2021/01/31 03:48:38;;;;;;;14.00;8.38;;;0.20;92.10;;;;;;5054726;28;20041;-66
2021/01/31 03:51:04;;;;;;;20.77;9.98;;;0.10;92.00;;;;;;5054418;28;20057;-66
2021/01/31 03:53:29;;;;;;;15.75;8.82;;;0.00;91.90;;;;;;5054708;28;20067;-66
2021/01/31 03:55:56;;;;;;;18.42;9.57;;;0.00;91.80;;;;;;5052214;28;20073;-66
2021/01/31 03:58:24;;;;;;;16.50;8.75;;;-0.10;91.90;;;;;;5054991;28;20459;-66
2021/01/31 04:00:54;;;;;;;19.35;10.35;;;-0.10;91.90;;;;;;5065278;28;20029;-66
2021/01/31 04:03:24;;;;;;;17.35;9.55;;;-0.20;92.00;;;;;;5055485;28;20029;-66
2021/01/31 04:05:58;;;;;;;16.38;8.93;;;-0.20;91.90;;;;;;5063898;28;20046;-66
2021/01/31 04:08:23;;;;;;;18.60;9.95;;;-0.20;91.90;;;;;;5055100;28;20040;-66
2021/01/31 04:10:49;;;;;;;19.90;11.30;;;-0.30;91.90;;;;;;5066751;28;20028;-66
2021/01/31 04:13:17;;;;;;;22.63;11.68;;;-0.40;91.90;;;;;;5054359;28;20059;-66
2021/01/31 04:15:55;;;;;;;23.90;12.77;;;-0.40;91.90;;;;;;5068370;28;20029;-66
2021/01/31 04:18:22;;;;;;;21.10;10.70;;;-0.40;91.70;;;;;;5054034;28;20045;-66
2021/01/31 04:20:48;;;;;;;16.27;10.15;;;-0.50;91.70;;;;;;5066737;28;20066;-66
2021/01/31 04:23:14;;;;;;;17.85;10.60;;;-0.60;91.80;;;;;;5053452;28;20039;-67
2021/01/31 04:25:40;;;;;;;21.20;10.68;;;-0.60;91.90;;;;;;5053047;28;20433;-67
2021/01/31 04:28:14;;;;;;;16.27;10.02;;;-0.60;91.90;;;;;;5067385;28;20029;-66
2021/01/31 04:30:41;;;;;;;20.02;9.95;;;-0.70;92.00;;;;;;5068112;28;20091;-67
2021/01/31 04:33:08;;;;;;;16.75;9.05;;;-0.70;92.00;;;;;;5065562;28;20028;-66
2021/01/31 04:35:34;;;;;;;17.52;9.27;;;-0.70;92.00;;;;;;5052921;28;20556;-66
2021/01/31 04:38:00;;;;;;;15.10;8.98;;;-0.80;92.00;;;;;;5064758;28;20111;-66
2021/01/31 04:40:26;;;;;;;17.75;8.63;;;-0.80;92.10;;;;;;5070616;28;20025;-66
2021/01/31 04:42:52;;;;;;;16.45;9.75;;;-0.80;92.20;;;;;;5053836;28;20119;-66
2021/01/31 04:45:18;;;;;;;17.90;9.38;;;-0.80;92.30;;;;;;5066343;28;20564;-66
2021/01/31 04:47:59;;;;;;;16.20;9.32;;;-0.80;92.20;;;;;;5059882;28;20489;-66
2021/01/31 04:50:59;;;;;;;17.83;9.43;;;-0.80;92.20;;;;;;5067805;28;20071;-66
2021/01/31 04:53:38;;;;;;;17.05;9.40;;;-0.80;92.20;;;;;;5053833;28;20032;-66
2021/01/31 04:56:17;;;;;;;14.80;9.10;;;-0.90;92.20;;;;;;5059637;28;20081;-66
2021/01/31 04:58:47;;;;;;;18.75;9.25;;;-0.90;92.10;;;;;;5053052;28;20028;-66
2021/01/31 05:01:24;;;;;;;17.13;9.55;;;-0.90;92.20;;;;;;5052279;28;20563;-65
2021/01/31 05:03:59;;;;;;;18.63;9.80;;;-1.00;92.30;;;;;;5053137;28;20037;-65
2021/01/31 05:06:29;;;;;;;15.68;9.13;;;-1.00;92.30;;;;;;5051793;28;20351;-65
2021/01/31 05:08:55;;;;;;;20.58;9.65;;;-1.10;92.40;;;;;;5059649;28;20051;-65
2021/01/31 05:11:27;;;;;;;18.80;9.57;;;-1.10;92.40;;;;;;5062484;28;20489;-65
2021/01/31 05:14:00;;;;;;;16.50;9.85;;;-1.20;92.50;;;;;;5058308;28;20077;-65
2021/01/31 05:16:26;;;;;;;17.42;9.40;;;-1.10;92.50;;;;;;5061171;28;20033;-65
2021/01/31 05:19:09;;;;;;;16.58;8.85;;;-1.10;92.40;;;;;;5057225;28;20035;-66
2021/01/31 05:21:35;;;;;;;16.77;8.82;;;-1.20;92.40;;;;;;5063664;28;20028;-68
2021/01/31 05:24:17;;;;;;;15.13;8.02;;;-1.20;92.40;;;;;;5072707;28;20036;-67
2021/01/31 05:27:03;;;;;;;14.43;8.20;;;-1.20;92.40;;;;;;5064197;28;20047;-67
2021/01/31 05:29:35;;;;;;;16.52;9.52;;;-1.20;92.40;;;;;;5060943;28;20088;-67
2021/01/31 05:32:16;;;;;;;18.10;8.43;;;-1.10;92.40;;;;;;5058502;28;20138;-66
2021/01/31 05:34:45;;;;;;;17.55;8.40;;;-1.10;92.40;;;;;;5065503;28;20440;-67
2021/01/31 05:37:19;;;;;;;14.77;8.40;;;-1.10;92.40;;;;;;5051389;28;20432;-66
2021/01/31 05:39:59;;;;;;;14.95;8.75;;;-1.20;92.40;;;;;;5052746;28;20435;-66
2021/01/31 05:42:34;;;;;;;17.23;9.25;;;-1.20;92.40;;;;;;5059469;28;20037;-67
2021/01/31 05:45:26;;;;;;;16.50;9.15;;;-1.30;92.50;;;;;;5072592;28;20486;-67
2021/01/31 05:47:52;;;;;;;15.82;8.05;;;-1.30;92.50;;;;;;5064140;28;20380;-66
2021/01/31 05:50:36;;;;;;;15.68;8.30;;;-1.30;92.50;;;;;;5062541;28;20035;-67
2021/01/31 05:53:31;;;;;;;13.57;7.47;;;-1.20;92.60;;;;;;5049868;28;20029;-67
2021/01/31 05:56:21;;;;;;;16.67;8.52;;;-1.20;92.60;;;;;;5057131;28;20393;-67
2021/01/31 05:58:46;;;;;;;14.98;8.52;;;-1.20;92.40;;;;;;5052082;28;20328;-67
2021/01/31 06:01:13;;;;;;;15.80;7.93;;;-1.30;92.40;;;;;;5051690;28;20626;-67
2021/01/31 06:03:40;;;;;;;14.23;8.25;;;-1.30;92.40;;;;;;5052229;28;20120;-67
2021/01/31 06:06:13;;;;;;;15.50;8.95;;;-1.20;92.30;;;;;;5048891;28;20021;-67
2021/01/31 06:08:43;;;;;;;15.10;8.18;;;-1.30;92.20;;;;;;5031969;28;20043;-67
2021/01/31 06:11:18;;;;;;;13.98;7.40;;;-1.30;92.10;;;;;;5048642;28;20773;-67
2021/01/31 06:13:44;;;;;;;16.80;8.38;;;-1.30;92.00;;;;;;5051734;28;20037;-68
2021/01/31 06:16:20;;;;;;;16.88;7.90;;;-1.30;92.00;;;;;;5051580;28;20044;-66
2021/01/31 06:19:08;;;;;;;15.13;7.47;;;-1.30;92.00;;;;;;5060512;28;20031;-67
2021/01/31 06:21:45;;;;;;;13.95;7.30;;;-1.30;92.00;;;;;;5050794;28;20505;-67
2021/01/31 06:24:48;;;;;;;13.20;7.65;;;-1.30;92.00;;;;;;5062639;28;20060;-67
2021/01/31 06:27:28;;;;;;;13.73;7.10;;;-1.30;91.90;;;;;;5053117;28;20599;-66
2021/01/31 06:30:04;;;;;;;15.82;7.65;;;-1.40;91.90;;;;;;5052109;28;20087;-67
2021/01/31 06:32:32;;;;;;;15.65;8.30;;;-1.40;92.00;;;;;;5050335;28;20607;-67
2021/01/31 06:35:00;;;;;;;14.77;7.68;;;-1.40;91.90;;;;;;5068889;28;20028;-67
2021/01/31 06:37:36;;;;;;;21.92;8.20;;;-1.40;91.90;;;;;;5051833;28;20033;-67
2021/01/31 06:40:08;;;;;;;15.20;8.52;;;-1.50;92.00;;;;;;5068443;28;20310;-66
2021/01/31 06:42:42;;;;;;;17.48;8.02;;;-1.60;92.00;;;;;;5051070;28;20044;-66
2021/01/31 06:45:19;;;;;;;15.57;7.93;;;-1.60;92.10;;;;;;5056115;28;20037;-66
2021/01/31 06:48:23;;;;;;;14.90;8.52;;;-1.60;92.10;;;;;;5064798;28;20032;-68
2021/01/31 06:51:31;;;;;;;14.15;7.95;;;-1.70;92.10;;;;;;5055809;28;20025;-67
2021/01/31 06:54:33;;;;;;;15.43;7.32;;;-1.80;92.10;;;;;;5028830;28;20042;-66
2021/01/31 06:57:23;;;;;;;16.40;8.63;;;-1.80;92.10;;;;;;5051095;28;20516;-66
2021/01/31 07:00:29;;;;;;;12.75;7.80;;;-1.90;92.10;;;;;;5071457;28;20033;-67
2021/01/31 07:03:26;;;;;;;20.55;8.60;;;-1.90;92.10;;;;;;5063599;28;20037;-67
2021/01/31 07:06:01;;;;;;;16.83;8.35;;;-2.00;92.10;;;;;;5067681;28;20040;-67
2021/01/31 07:08:49;;;;;;;18.27;9.32;;;-2.00;92.20;;;;;;5072272;28;20107;-66
2021/01/31 07:11:35;;;;;;;17.15;8.10;;;-2.00;92.20;;;;;;5063130;28;20040;-66
2021/01/31 07:14:17;;;;;;;16.58;7.90;;;-2.00;92.20;;;;;;5054418;28;20401;-66
2021/01/31 07:17:01;;;;;;;14.68;7.80;;;-2.10;92.20;;;;;;5064427;28;20043;-66
2021/01/31 07:19:33;;;;;;;16.85;8.35;;;-2.10;92.20;;;;;;5056415;28;20032;-66
2021/01/31 07:22:09;;;;;;;15.32;7.53;;;-2.10;92.20;;;;;;5064045;28;20059;-67
2021/01/31 07:24:41;;;;;;;13.57;7.65;;;-2.10;92.20;;;;;;5076069;28;20063;-65
2021/01/31 07:27:22;;;;;;;14.50;7.75;;;-2.10;92.30;;;;;;5055720;28;20037;-66
2021/01/31 07:30:11;;;;;;;17.77;8.63;;;-2.10;92.30;;;;;;5056873;28;20040;-66
2021/01/31 07:32:51;;;;;;;13.13;7.55;;;-2.00;92.30;;;;;;5055331;28;20036;-66
2021/01/31 07:35:21;;;;;;;14.25;7.43;;;-2.00;92.10;;;;;;5061455;28;20052;-66
2021/01/31 07:37:51;;;;;;;16.38;7.85;;;-2.00;92.10;;;;;;5056427;28;20039;-66
2021/01/31 07:40:20;;;;;;;15.45;8.20;;;-2.00;92.10;;;;;;5055648;28;20025;-66
2021/01/31 07:42:51;;;;;;;14.13;7.40;;;-2.00;92.20;;;;;;5054165;28;20041;-66
2021/01/31 07:45:20;;;;;;;18.17;8.73;;;-2.00;92.20;;;;;;5056772;28;20029;-66
2021/01/31 07:47:47;;;;;;;15.52;8.13;;;-2.00;92.20;;;;;;5055348;28;20037;-66
2021/01/31 07:50:20;;;;;;;15.63;8.18;;;-2.00;92.20;;;;;;5051748;28;20025;-66
2021/01/31 07:52:55;;;;;;;14.05;8.05;;;-2.00;92.20;;;;;;5061331;28;20029;-66
2021/01/31 07:55:29;;;;;;;;;;;-2.00;92.30;;;;;;5056940;28;20120;-67
2021/01/31 07:58:20;;;;;;;15.77;7.78;;;-2.00;92.30;;;;;;5058279;28;19944;-66
2021/01/31 08:00:49;;;;;;;16.00;8.15;;;-2.00;92.30;;;;;;5055833;28;20029;-66
2021/01/31 08:03:23;;;;;;;19.08;8.40;;;-2.00;92.30;;;;;;5056453;28;20119;-66
2021/01/31 08:06:17;;;;;;;15.13;7.50;;;-2.00;92.30;;;;;;5054135;28;20048;-66
2021/01/31 08:08:52;;;;;;;14.23;7.85;;;-1.90;92.40;;;;;;5055859;28;20036;-66
2021/01/31 08:11:17;;;;;;;14.77;7.78;;;-1.80;92.60;;;;;;5056300;28;20025;-66
2021/01/31 08:13:51;;;;;;;15.02;7.95;;;-1.80;92.40;;;;;;5077618;28;20093;-67
2021/01/31 08:16:47;;;;;;;12.95;7.47;;;-1.70;92.50;;;;;;5060062;28;20497;-67
2021/01/31 08:19:29;;;;;;;15.02;8.55;;;-1.60;92.40;;;;;;5053390;28;20028;-66
2021/01/31 08:21:59;;;;;;;14.85;7.65;;;-1.50;92.50;;;;;;5052677;28;20048;-67
2021/01/31 08:25:20;;;;;;;16.50;8.10;;;-1.50;92.40;;;;;;5054430;28;20043;-67
2021/01/31 08:27:49;;;;;;;14.23;7.97;;;-1.40;92.30;;;;;;5053566;28;20082;-66
2021/01/31 08:30:42;;;;;;;16.88;9.57;;;-1.30;92.30;;;;;;5051741;28;20025;-66
2021/01/31 08:33:28;;;;;;;15.07;7.28;;;-1.20;92.30;;;;;;5053629;28;20061;-66
2021/01/31 08:36:19;;;;;;;17.85;9.07;;;-1.10;92.20;;;;;;5052376;28;20060;-66
2021/01/31 08:38:51;;;;;;;13.88;7.57;;;-1.00;92.10;;;;;;5053721;28;20029;-67
2021/01/31 08:41:38;;;;;;;14.65;8.10;;;-1.00;92.00;;;;;;5049297;28;20079;-67
2021/01/31 08:44:10;;;;;;;13.15;6.97;;;-0.90;91.90;;;;;;5053609;28;20029;-66
2021/01/31 08:46:55;;;;;;;14.93;7.32;;;-0.80;91.80;;;;;;5059607;28;20056;-66
2021/01/31 08:49:21;;;;;;;;;;;-0.70;91.70;;;;;;5052448;28;20044;-66
2021/01/31 08:52:20;;;;;;;14.15;7.53;;;-0.60;91.80;;;;;;5044667;28;19909;-66
2021/01/31 08:54:57;;;;;;;12.48;7.18;;;-0.60;91.60;;;;;;5029279;28;20034;-65
2021/01/31 08:57:23;;;;;;;11.38;6.50;;;-0.60;91.60;;;;;;5049873;28;20051;-68
2021/01/31 08:59:52;;;;;;;14.48;7.43;;;-0.60;91.50;;;;;;5048500;28;20037;-68
2021/01/31 09:02:19;;;;;;;14.90;7.75;;;-0.50;91.50;;;;;;5051370;28;20433;-69
2021/01/31 09:05:10;;;;;;;15.88;7.72;;;-0.40;91.40;;;;;;5052046;28;20028;-69
2021/01/31 09:07:44;;;;;;;13.95;7.40;;;-0.40;91.40;;;;;;5042574;28;20037;-67
2021/01/31 09:10:29;;;;;;;14.15;8.35;;;-0.30;91.40;;;;;;5050299;28;20044;-68
2021/01/31 09:13:14;;;;;;;11.70;6.78;;;-0.30;91.30;;;;;;5040645;28;20064;-69
2021/01/31 09:15:40;;;;;;;15.55;7.43;;;-0.20;91.20;;;;;;5048150;28;20481;-70
2021/01/31 09:18:14;;;;;;;13.25;7.53;;;-0.10;91.10;;;;;;5052509;28;20079;-70
2021/01/31 09:20:40;;;;;;;13.00;7.43;;;-0.10;91.10;;;;;;5041302;28;20070;-70
2021/01/31 09:23:09;;;;;;;12.52;6.95;;;-0.10;91.10;;;;;;5052838;28;20041;-69
2021/01/31 09:25:38;;;;;;;11.93;6.85;;;0.00;91.00;;;;;;5052978;28;20020;-69
2021/01/31 09:28:10;;;;;;;12.50;7.38;;;0.00;90.90;;;;;;5040857;28;20033;-67
2021/01/31 09:30:37;;;;;;;11.05;6.82;;;0.10;90.80;;;;;;5054131;28;20126;-68
2021/01/31 09:33:21;;;;;;;15.85;7.90;;;0.10;90.80;;;;;;5052311;28;20368;-68
2021/01/31 09:35:46;;;;;;;14.50;7.57;;;0.20;90.70;;;;;;5055956;28;20037;-68
2021/01/31 09:38:27;;;;;;;15.02;7.63;;;0.20;90.70;;;;;;5052254;28;20028;-70
2021/01/31 09:40:55;;;;;;;13.35;7.10;;;0.30;90.70;;;;;;5051568;28;20067;-69
2021/01/31 09:43:28;;;;;;;14.80;8.32;;;0.30;90.60;;;;;;5050798;28;20110;-69
2021/01/31 09:45:56;;;;;;;11.85;6.97;;;0.30;90.60;;;;;;5048420;28;20032;-69
2021/01/31 09:48:26;;;;;;;12.30;6.97;;;0.40;90.60;;;;;;5049826;28;20100;-69
2021/01/31 09:50:57;;;;;;;13.55;7.40;;;0.40;90.50;;;;;;5043514;28;20524;-69
2021/01/31 09:53:40;;;;;;;12.75;6.43;;;0.50;90.50;;;;;;5057033;28;20033;-69
2021/01/31 09:56:26;;;;;;;14.70;7.80;;;0.50;90.40;;;;;;5047506;28;20037;-69
2021/01/31 09:58:51;;;;;;;12.27;6.72;;;0.60;90.40;;;;;;5045984;28;20090;-69
2021/01/31 10:01:26;;;;;;;14.75;7.03;;;0.60;90.40;;;;;;5044894;28;20424;-68
2021/01/31 10:04:03;;;;;;;;;;;0.60;90.40;;;;;;5047721;28;20126;-70
2021/01/31 10:06:40;;;;;;;12.73;7.68;;;0.70;90.60;;;;;;5048682;28;19908;-69
2021/01/31 10:09:06;;;;;;;13.27;7.75;;;0.70;90.40;;;;;;5051005;28;20440;-68
2021/01/31 10:11:33;;;;;;;11.82;6.68;;;0.80;90.30;;;;;;5047623;28;20079;-70
2021/01/31 10:14:00;;;;;;;15.60;7.90;;;0.80;90.20;;;;;;5049184;28;20045;-69
2021/01/31 10:16:29;;;;;;;13.60;7.13;;;0.90;90.20;;;;;;5049007;28;20087;-69
2021/01/31 10:19:10;;;;;;;15.70;7.32;;;0.90;90.10;;;;;;5050975;28;20121;-68
2021/01/31 10:21:45;;;;;;;12.63;7.20;;;1.00;90.10;;;;;;5039456;28;20033;-71
2021/01/31 10:24:21;;;;;;;12.73;7.43;;;1.00;90.00;;;;;;5037091;28;20382;-68
2021/01/31 10:26:47;;;;;;;13.80;7.97;;;1.10;90.10;;;;;;5049628;28;20029;-69
2021/01/31 10:29:27;;;;;;;15.30;8.48;;;1.10;90.10;;;;;;5050238;28;20456;-69
2021/01/31 10:31:53;;;;;;;13.60;8.07;;;1.10;90.10;;;;;;5045616;28;20018;-69
2021/01/31 10:34:38;;;;;;;15.25;8.80;;;1.10;90.20;;;;;;5050444;28;20041;-68
2021/01/31 10:37:16;;;;;;;16.55;8.05;;;1.10;90.30;;;;;;5046757;28;20023;-68
2021/01/31 10:39:42;;;;;;;18.05;9.48;;;1.20;90.30;;;;;;5037799;28;20485;-68
2021/01/31 10:42:08;;;;;;;12.23;6.72;;;1.20;90.20;;;;;;5049325;28;20035;-69
2021/01/31 10:44:34;;;;;;;15.20;8.40;;;1.30;90.30;;;;;;5051043;28;20024;-69
2021/01/31 10:46:59;;;;;;;15.95;8.65;;;1.40;90.20;;;;;;5047971;28;20432;-69
2021/01/31 10:49:25;;;;;;;12.77;7.40;;;1.40;90.10;;;;;;5051843;28;20039;-69
2021/01/31 10:51:51;;;;;;;19.45;8.23;;;1.50;90.10;;;;;;5050294;28;20037;-69
2021/01/31 10:54:19;;;;;;;13.25;7.15;;;1.50;90.00;;;;;;5051119;28;20511;-69
2021/01/31 10:56:44;;;;;;;11.90;7.18;;;1.50;90.10;;;;;;5049245;28;20472;-69
2021/01/31 10:59:10;;;;;;;11.25;6.10;;;1.60;90.00;;;;;;5048476;28;20048;-69
2021/01/31 11:01:35;;;;;;;12.77;6.35;;;1.70;89.90;;;;;;5047608;28;20036;-69
2021/01/31 11:04:01;;;;;;;10.70;6.18;;;1.80;89.60;;;;;;5051872;28;20024;-69
2021/01/31 11:06:27;;;;;;;12.90;7.10;;;1.90;89.20;;;;;;5060151;28;20025;-69
2021/01/31 11:08:53;;;;;;;12.05;6.25;;;1.90;88.70;;;;;;5045441;28;20090;-69
2021/01/31 11:11:19;;;;;;;11.55;5.88;;;2.00;88.40;;;;;;5044043;28;20044;-69
2021/01/31 11:13:46;;;;;;;7.30;5.18;;;2.10;87.70;;;;;;5051101;28;20025;-68
2021/01/31 11:16:11;;;;;;;7.68;4.95;;;2.20;87.30;;;;;;5049778;28;20048;-68
2021/01/31 11:18:37;;;;;;;11.18;5.60;;;2.20;86.80;;;;;;5049960;28;20040;-68
2021/01/31 11:21:03;;;;;;;9.75;5.47;;;2.20;86.40;;;;;;5046445;28;21138;-68
2021/01/31 11:23:28;;;;;;;8.95;5.88;;;2.20;86.40;;;;;;5070996;28;20127;-67
2021/01/31 11:25:54;;;;;;;10.55;5.85;;;2.20;86.10;;;;;;5057161;28;20116;-68
2021/01/31 11:28:19;;;;;;;9.82;5.88;;;2.30;85.90;;;;;;5050122;28;20397;-68
2021/01/31 11:30:46;;;;;;;11.27;6.25;;;2.30;85.70;;;;;;5047313;28;20119;-67
2021/01/31 11:33:12;;;;;;;8.55;5.22;;;2.40;85.50;;;;;;5056790;28;20036;-67
2021/01/31 11:35:38;;;;;;;9.00;5.75;;;2.40;85.00;;;;;;5049649;28;20040;-68
2021/01/31 11:38:04;;;;;;;9.60;5.28;;;2.50;84.80;;;;;;5066842;28;20017;-68
2021/01/31 11:40:30;;;;;;;9.07;4.93;;;2.50;84.40;;;;;;5047179;28;20119;-67
2021/01/31 11:42:55;;;;;;;9.50;5.93;;;2.60;84.10;;;;;;5049407;28;20059;-67
2021/01/31 11:45:23;;;;;;;8.57;5.00;;;2.60;83.50;;;;;;5047564;28;20029;-66
2021/01/31 11:47:48;;;;;;;8.93;4.97;;;2.60;83.20;;;;;;5049019;28;20044;-66
2021/01/31 11:50:15;;;;;;;6.85;4.53;;;2.70;82.70;;;;;;5051562;28;20025;-67
2021/01/31 11:52:40;;;;;;;7.88;5.22;;;2.70;82.40;;;;;;5054957;28;20048;-68
2021/01/31 11:55:07;;;;;;;7.85;5.00;;;2.70;82.10;;;;;;5063047;28;20029;-67
2021/01/31 11:57:35;;;;;;;8.00;5.00;;;2.80;82.10;;;;;;5052007;28;20087;-68
2021/01/31 12:00:03;;;;;;;9.60;5.10;;;2.90;81.80;;;;;;5052091;28;20512;-68
2021/01/31 12:02:29;;;;;;;8.50;5.22;;;2.90;81.40;;;;;;5052908;28;20052;-68
2021/01/31 12:04:54;;;;;;;9.60;5.80;;;3.00;81.00;;;;;;5061895;28;20047;-68
2021/01/31 12:07:20;;;;;;;7.75;4.75;;;3.00;80.50;;;;;;5047140;28;20029;-67
2021/01/31 12:09:45;;;;;;;7.82;4.75;;;3.00;80.30;;;;;;5050251;28;20021;-67
2021/01/31 12:12:11;;;;;;;8.90;5.07;;;3.10;80.20;;;;;;5052023;28;20029;-68
2021/01/31 12:14:36;;;;;;;8.27;5.03;;;3.10;80.30;;;;;;5065996;28;20029;-67
2021/01/31 12:17:02;;;;;;;9.23;5.38;;;3.00;79.60;;;;;;5037956;28;20576;-68
2021/01/31 12:19:27;;;;;;;9.15;5.72;;;3.00;79.30;;;;;;5039450;28;20028;-67
2021/01/31 12:21:53;;;;;;;8.93;5.75;;;3.00;79.40;;;;;;5046421;28;20401;-67
2021/01/31 12:24:19;;;;;;;9.50;5.95;;;3.00;79.40;;;;;;5034560;28;20033;-67
2021/01/31 12:26:45;;;;;;;11.05;5.97;;;3.10;79.30;;;;;;5033738;28;20392;-66
2021/01/31 12:29:11;;;;;;;10.38;5.60;;;3.10;79.00;;;;;;5034315;28;20045;-66
2021/01/31 12:31:37;;;;;;;8.77;6.07;;;3.20;78.70;;;;;;5043668;28;20104;-66
2021/01/31 12:34:03;;;;;;;9.05;5.63;;;3.20;78.10;;;;;;5046618;28;20144;-66
2021/01/31 12:36:29;;;;;;;10.32;5.75;;;3.20;78.40;;;;;;5035520;28;20021;-67
2021/01/31 12:38:55;;;;;;;9.05;5.90;;;3.20;78.00;;;;;;5033897;28;20037;-67
2021/01/31 12:41:21;;;;;;;9.68;5.40;;;3.20;78.00;;;;;;5041307;28;20179;-68
2021/01/31 12:43:46;;;;;;;9.13;5.60;;;3.20;77.80;;;;;;5041868;28;20047;-68
2021/01/31 12:46:12;;;;;;;10.50;5.40;;;3.20;77.30;;;;;;5041801;28;20063;-67
2021/01/31 12:48:37;;;;;;;9.20;5.50;;;3.20;76.90;;;;;;5049704;28;20032;-67
2021/01/31 12:51:04;;;;;;;8.73;5.45;;;3.20;76.60;;;;;;5045279;28;20075;-67
2021/01/31 12:53:29;;;;;;;8.38;5.60;;;3.20;76.70;;;;;;5048461;28;20040;-66
2021/01/31 12:55:55;;;;;;;9.43;5.38;;;3.20;76.60;;;;;;5043954;28;20036;-67
2021/01/31 12:58:20;;;;;;;8.23;5.25;;;3.20;76.60;;;;;;5051691;28;20103;-67
2021/01/31 13:00:45;;;;;;;8.70;4.97;;;3.10;76.40;;;;;;5046110;28;20053;-67
2021/01/31 13:03:11;;;;;;;9.18;6.22;;;3.10;76.40;;;;;;5039387;28;20055;-67
2021/01/31 13:05:36;;;;;;;9.20;5.47;;;3.10;76.20;;;;;;5039935;28;20041;-67
2021/01/31 13:08:03;;;;;;;9.75;6.03;;;3.10;76.20;;;;;;5046316;28;20025;-68
2021/01/31 13:10:29;;;;;;;8.60;5.68;;;3.10;76.40;;;;;;5050141;28;20025;-67